Weather observations for the past three days for
Palm Beach County Park Airport
| Date | Time (edt) | Wind (mph) | Vis. (mi.) | Weather | Sky Cond. | Temperature (ºF) | Relative Humidity | Wind Chill (°F) | Heat Index (°F) | Pressure | Precipitation (in) | ||||||
|---|---|---|---|---|---|---|---|---|---|---|---|---|---|---|---|---|---|
| Air | Dwpt | 6 hour | altimeter (in) | sea level (mb) | 1 hr | 3 hr | 6 hr | ||||||||||
| Max. | Min. | ||||||||||||||||
| 02 | 19:15 | W 12 | 10.00 | Fair | CLR | 90.7 | 54 | 29% | 88 | 29.86 | 0.0 | ||||||
| 02 | 18:55 | SW 9 | 10.00 | Fair | CLR | 91.4 | 53.1 | 27% | 89 | 29.85 | 0.0 | ||||||
| 02 | 18:35 | W 9 | 10.00 | Fair | CLR | 91.6 | 53.2 | 27% | 89 | 29.85 | 0.0 | ||||||
| 02 | 18:15 | W 14 G 18 | 10.00 | Fair | CLR | 92.1 | 53.2 | 27% | 90 | 29.84 | 0.0 | ||||||
| 02 | 17:55 | W 8 | 10.00 | Fair | CLR | 94.1 | 52.5 | 24% | 91 | 29.84 | 0.0 | ||||||
| 02 | 17:35 | SW 16 G 23 | 10.00 | Fair | CLR | 94.3 | 51.4 | 23% | 91 | 29.84 | 0.0 | ||||||
| 02 | 17:15 | SW 17 | 10.00 | Fair | CLR | 95 | 51.6 | 23% | 92 | 29.84 | 0.0 | ||||||
| 02 | 16:55 | W 21 G 24 | 10.00 | Fair and Breezy | CLR | 95 | 51.8 | 23% | 92 | 29.84 | 0.0 | ||||||
| 02 | 16:35 | W 16 G 23 | 10.00 | Fair | CLR | 95 | 53.1 | 24% | 93 | 29.84 | 0.0 | ||||||
| 02 | 16:15 | W 22 G 28 | 10.00 | Partly Cloudy and Breezy | SCT065 | 95 | 53.8 | 25% | 93 | 29.84 | 0.0 | ||||||
| 02 | 15:55 | SW 18 G 30 | 10.00 | Fair | CLR | 96.1 | 54.7 | 25% | 94 | 29.85 | 0.0 | ||||||
| 02 | 15:35 | W 22 G 30 | 10.00 | Partly Cloudy and Breezy | SCT065 SCT075 | 95.5 | 56.3 | 27% | 94 | 29.85 | 0.0 | ||||||
| 02 | 15:15 | SW 18 G 26 | 10.00 | Partly Cloudy | SCT060 | 95.4 | 55.8 | 26% | 94 | 29.85 | 0.0 | ||||||
| 02 | 14:55 | SW 18 G 29 | 10.00 | Partly Cloudy | SCT060 | 96.4 | 56.7 | 26% | 95 | 29.85 | 0.0 | ||||||
| 02 | 14:35 | SW 21 G 24 | 10.00 | Mostly Cloudy and Breezy | BKN060 BKN080 | 95.9 | 57.4 | 28% | 95 | 29.85 | 0.0 | ||||||
| 02 | 14:15 | SW 16 G 23 | 10.00 | Partly Cloudy | SCT050 SCT080 | 95.9 | 59.5 | 30% | 96 | 29.86 | 0.0 | ||||||
| 02 | 13:55 | S 10 | 10.00 | Mostly Cloudy | SCT035 BKN048 BKN065 | 89.4 | 70.3 | 92.8 | 78.1 | 53% | 95 | 29.87 | 0.0 | ||||
| 02 | 13:35 | S 12 | 10.00 | Mostly Cloudy | BKN048 BKN065 | 89.1 | 70.3 | 54% | 95 | 29.87 | 0.0 | ||||||
| 02 | 13:15 | SE 13 G 20 | 10.00 | Mostly Cloudy | BKN048 BKN055 | 88.9 | 69.8 | 53% | 94 | 29.88 | 0.0 | ||||||
| 02 | 12:55 | S 8 | 10.00 | Mostly Cloudy | BKN048 BKN055 | 90.3 | 69.6 | 51% | 96 | 29.88 | 0.0 | ||||||
| 02 | 12:35 | S 9 G 20 | 10.00 | Mostly Cloudy | BKN048 BKN055 | 92.1 | 64.9 | 41% | 94 | 29.89 | 0.0 | ||||||
| 02 | 12:15 | S 16 G 20 | 10.00 | Partly Cloudy | SCT046 SCT050 | 92.7 | 62.2 | 36% | 93 | 29.89 | 0.0 | ||||||
| 02 | 11:55 | SW 16 G 21 | 10.00 | Partly Cloudy | SCT045 | 91 | 62.1 | 38% | 92 | 29.9 | 0.0 | ||||||
| 02 | 11:35 | SW 14 G 20 | 10.00 | Partly Cloudy | SCT040 SCT047 | 90.1 | 62.1 | 39% | 91 | 29.9 | 0.0 | ||||||
| 02 | 11:15 | SW 13 G 17 | 10.00 | Partly Cloudy | SCT038 | 90.1 | 63.7 | 41% | 91 | 29.9 | 0.0 | ||||||
| 02 | 10:55 | S 10 G 18 | 10.00 | Partly Cloudy | SCT038 | 88.5 | 64.6 | 45% | 90 | 29.9 | 0.0 | ||||||
| 02 | 10:35 | S 9 | 10.00 | Partly Cloudy | SCT029 | 88.2 | 65.8 | 48% | 90 | 29.9 | 0.0 | ||||||
| 02 | 10:15 | S 12 G 18 | 10.00 | Partly Cloudy | SCT029 | 87.1 | 66 | 50% | 89 | 29.89 | 0.0 | ||||||
| 02 | 09:55 | SW 12 | 10.00 | Fair | CLR | 86.2 | 67.3 | 53% | 89 | 29.89 | 0.0 | ||||||
| 02 | 09:35 | S 9 G 16 | 10.00 | Fair | CLR | 84.4 | 68.2 | 58% | 88 | 29.89 | 0.0 | ||||||
| 02 | 09:15 | S 8 | 10.00 | Fair | CLR | 83.3 | 68.9 | 62% | 87 | 29.89 | 0.0 | ||||||
| 02 | 08:55 | S 6 | 10.00 | Fair | CLR | 82.2 | 68.9 | 64% | 86 | 29.89 | 0.0 | ||||||
| 02 | 08:35 | S 8 | 10.00 | Fair | CLR | 80.6 | 68.9 | 68% | 84 | 29.89 | 0.0 | ||||||
| 02 | 08:15 | S 6 | 10.00 | Fair | CLR | 79.5 | 68.2 | 68% | 82 | 29.89 | 0.0 | ||||||
| 02 | 07:55 | S 5 | 10.00 | Fair | CLR | 77.9 | 67.1 | 77.9 | 73.8 | 70% | 80 | 29.9 | 0.0 | ||||
| 02 | 07:35 | S 3 | 10.00 | Fair | CLR | 77 | 66.2 | 69% | 79 | 29.9 | 0.0 | ||||||
| 02 | 07:15 | S 5 | 10.00 | Partly Cloudy | SCT080 | 76.1 | 65.7 | 70% | 78 | 29.9 | 0.0 | ||||||
| 02 | 06:55 | SW 3 | 10.00 | Mostly Cloudy | BKN080 | 75.4 | 65.7 | 72% | 77 | 29.9 | 0.0 | ||||||
| 02 | 06:35 | S 3 | 10.00 | Partly Cloudy | SCT080 | 75.4 | 66 | 73% | 77 | 29.89 | 0.0 | ||||||
| 02 | 06:15 | S 3 | 10.00 | Mostly Cloudy | BKN080 | 75.2 | 66.2 | 74% | 77 | 29.89 | 0.0 | ||||||
| 02 | 05:55 | S 3 | 10.00 | Mostly Cloudy | BKN080 | 75.2 | 65.8 | 73% | 77 | 29.89 | 0.0 | ||||||
| 02 | 05:35 | Calm | 10.00 | Mostly Cloudy | BKN070 | 75.2 | 65.5 | 72% | 77 | 29.9 | 0.0 | ||||||
| 02 | 05:15 | S 3 | 10.00 | Mostly Cloudy | BKN070 | 75.2 | 65.5 | 72% | 77 | 29.89 | 0.0 | ||||||
| 02 | 04:55 | SW 3 | 10.00 | Partly Cloudy | SCT070 | 73.8 | 64.8 | 74% | 29.89 | 0.0 | |||||||
| 02 | 04:35 | Calm | 10.00 | Fair | CLR | 74.3 | 64.9 | 73% | 29.88 | 0.0 | |||||||
| 02 | 04:15 | Calm | 10.00 | Fair | CLR | 74.3 | 64.8 | 72% | 29.89 | 0.0 | |||||||
| 02 | 03:55 | W 6 | 10.00 | Fair | CLR | 74.5 | 64.8 | 72% | 29.89 | 0.0 | |||||||
| 02 | 03:35 | W 6 | 10.00 | Fair | CLR | 74.5 | 64.9 | 72% | 29.89 | 0.0 | |||||||
| 02 | 03:15 | W 5 | 10.00 | Fair | CLR | 74.8 | 64.6 | 71% | 29.89 | 0.0 | |||||||
| 02 | 02:55 | SW 5 | 10.00 | Fair | CLR | 75.2 | 63.9 | 68% | 77 | 29.9 | 0.0 | ||||||
| 02 | 02:35 | SW 5 | 10.00 | Fair | CLR | 75.9 | 64.4 | 68% | 78 | 29.9 | 0.0 | ||||||
| 02 | 02:15 | SW 3 | 10.00 | Fair | CLR | 75.6 | 63.9 | 67% | 77 | 29.9 | 0.0 | ||||||
| 02 | 01:55 | W 5 | 10.00 | Fair | CLR | 76.3 | 63.5 | 81.9 | 76.3 | 65% | 78 | 29.9 | 0.0 | ||||
| 02 | 01:35 | SW 7 | 10.00 | Fair | CLR | 77.4 | 63.1 | 62% | 79 | 29.91 | 0.0 | ||||||
| 02 | 01:15 | SW 6 | 10.00 | Fair | CLR | 78.4 | 63.9 | 61% | 80 | 29.91 | 0.0 | ||||||
| 02 | 00:55 | SW 7 | 10.00 | Fair | CLR | 79.2 | 67.8 | 68% | 82 | 29.91 | 0.0 | ||||||
| 02 | 00:35 | SW 8 | 10.00 | Fair | CLR | 79.9 | 68.2 | 68% | 82 | 29.91 | 0.0 | ||||||
| 02 | 00:15 | S 7 | 10.00 | Fair | CLR | 79.9 | 68 | 67% | 82 | 29.91 | 0.0 | ||||||
| 01 | 23:55 | S 8 | 10.00 | Fair | CLR | 80.1 | 67.6 | 66% | 83 | 29.91 | 0.0 | ||||||
| 01 | 23:35 | S 8 | 10.00 | Fair | CLR | 80.4 | 67.1 | 64% | 83 | 29.91 | 0.0 | ||||||
| 01 | 23:15 | S 9 | 10.00 | Fair | CLR | 80.6 | 66.7 | 63% | 83 | 29.91 | 0.0 | ||||||
| 01 | 22:55 | S 7 | 10.00 | Fair | CLR | 80.6 | 66.7 | 63% | 83 | 29.91 | 0.0 | ||||||
| 01 | 22:35 | S 7 | 10.00 | Fair | CLR | 80.8 | 65.7 | 60% | 83 | 29.91 | 0.0 | ||||||
| 01 | 22:15 | S 9 | 7.00 | Fair | CLR | 80.8 | 65.3 | 59% | 83 | 29.9 | 0.0 | ||||||
| 01 | 21:55 | S 10 | 10.00 | Fair | CLR | 80.8 | 66.2 | 61% | 83 | 29.89 | 0.0 | ||||||
| 01 | 21:35 | S 10 | 7.00 | Fair | CLR | 81.1 | 66 | 60% | 83 | 29.89 | 0.0 | ||||||
| 01 | 21:15 | S 10 | 10.00 | Fair | CLR | 81.1 | 65.5 | 59% | 83 | 29.89 | 0.0 | ||||||
| 01 | 20:55 | S 10 G 17 | 10.00 | Fair | CLR | 81.5 | 65.3 | 58% | 83 | 29.88 | 0.0 | ||||||
| 01 | 20:35 | S 13 | 10.00 | Fair | CLR | 81.5 | 66.2 | 60% | 84 | 29.87 | 0.0 | ||||||
| 01 | 20:15 | SE 9 G 16 | 10.00 | Fair | CLR | 81.5 | 66.2 | 60% | 84 | 29.86 | 0.0 | ||||||
| 01 | 19:55 | S 12 G 16 | 10.00 | Fair | CLR | 81.9 | 66.2 | 87.4 | 81.9 | 59% | 84 | 29.86 | 0.0 | ||||
| 01 | 19:35 | SE 13 | 10.00 | Fair | CLR | 82.4 | 65.7 | 57% | 84 | 29.85 | 0.0 | ||||||
| 01 | 19:15 | SE 13 | 10.00 | Fair | CLR | 82.6 | 65.1 | 56% | 84 | 29.85 | 0.0 | ||||||
| 01 | 18:55 | SE 15 | 10.00 | Fair | CLR | 83.3 | 65.3 | 55% | 85 | 29.85 | 0.0 | ||||||
| 01 | 18:35 | SE 12 G 16 | 10.00 | Fair | CLR | 84.2 | 65.3 | 53% | 86 | 29.84 | 0.0 | ||||||
| 01 | 18:15 | SE 13 G 16 | 10.00 | Fair | CLR | 84.4 | 65.5 | 53% | 86 | 29.85 | 0.0 | ||||||
| 01 | 17:55 | SE 9 | 10.00 | Fair | CLR | 84.9 | 65.5 | 52% | 87 | 29.85 | 0.0 | ||||||
| 01 | 17:35 | SE 13 G 16 | 10.00 | Fair | CLR | 85.6 | 64.9 | 50% | 87 | 29.85 | 0.0 | ||||||
| 01 | 17:15 | SE 12 | 10.00 | Fair | CLR | 85.5 | 64.6 | 50% | 87 | 29.85 | 0.0 | ||||||
| 01 | 16:55 | SE 13 | 10.00 | Fair | CLR | 86 | 64.4 | 49% | 87 | 29.85 | 0.0 | ||||||
| 01 | 16:35 | SE 12 | 10.00 | Fair | CLR | 86.2 | 64 | 48% | 88 | 29.85 | 0.0 | ||||||
| 01 | 16:15 | SE 12 | 10.00 | Fair | CLR | 86.2 | 64.2 | 48% | 88 | 29.86 | 0.0 | ||||||
| 01 | 15:55 | SE 13 | 10.00 | Fair | CLR | 86.9 | 63.7 | 46% | 88 | 29.87 | 0.0 | ||||||
| 01 | 15:35 | SE 13 | 10.00 | Partly Cloudy | SCT060 | 86.7 | 63.1 | 45% | 88 | 29.87 | 0.0 | ||||||
| 01 | 15:15 | SE 13 | 10.00 | Partly Cloudy | SCT060 | 86.7 | 63.3 | 46% | 88 | 29.89 | 0.0 | ||||||
| 01 | 14:55 | SE 9 | 10.00 | Partly Cloudy | SCT060 | 86 | 63 | 46% | 87 | 29.89 | 0.0 | ||||||
| 01 | 14:35 | E 8 | 10.00 | Partly Cloudy | SCT050 | 86.7 | 63 | 45% | 88 | 29.9 | 0.0 | ||||||
| 01 | 14:15 | E 10 | 10.00 | Partly Cloudy | SCT039 SCT048 | 85.6 | 63.5 | 48% | 87 | 29.9 | 0.0 | ||||||
| 01 | 13:55 | SE 9 | 10.00 | Mostly Cloudy | SCT038 BKN050 | 85.8 | 63.9 | 88.9 | 73.9 | 48% | 87 | 29.91 | 0.0 | ||||
| 01 | 13:35 | E 7 | 10.00 | Mostly Cloudy | SCT044 BKN050 | 85.8 | 62.8 | 46% | 87 | 29.91 | 0.0 | ||||||
| 01 | 13:15 | S 5 | 10.00 | Partly Cloudy | SCT050 | 86.5 | 63.1 | 46% | 87 | 29.92 | 0.0 | ||||||
| 01 | 12:55 | SW 7 | 10.00 | Fair | CLR | 88.3 | 57 | 35% | 87 | 29.92 | 0.0 | ||||||
| 01 | 12:35 | W 8 | 10.00 | Partly Cloudy | SCT045 | 87.8 | 57.4 | 36% | 87 | 29.92 | 0.0 | ||||||
| 01 | 12:15 | SW 5 | 10.00 | Partly Cloudy | SCT045 | 86.7 | 57.6 | 37% | 86 | 29.93 | 0.0 | ||||||
| 01 | 11:55 | W 8 | 10.00 | Fair | CLR | 86.4 | 59.9 | 41% | 86 | 29.93 | 0.0 | ||||||
| 01 | 11:35 | N 3 | 10.00 | Fair | CLR | 84.7 | 61 | 45% | 85 | 29.93 | 0.0 | ||||||
| 01 | 11:15 | SW 6 | 10.00 | Fair | CLR | 84.4 | 60.8 | 45% | 85 | 29.94 | 0.0 | ||||||
| 01 | 10:55 | SW 6 | 10.00 | Fair | CLR | 83.3 | 63.3 | 51% | 84 | 29.94 | 0.0 | ||||||
| 01 | 10:35 | S 6 | 10.00 | Fair | CLR | 82.6 | 64 | 54% | 84 | 29.94 | 0.0 | ||||||
| 01 | 10:15 | W 5 | 10.00 | Fair | CLR | 81.3 | 65.3 | 58% | 83 | 29.93 | 0.0 | ||||||
| 01 | 09:55 | SW 5 | 10.00 | Fair | CLR | 79.7 | 66.4 | 64% | 82 | 29.94 | 0.0 | ||||||
| 01 | 09:35 | W 5 | 10.00 | Fair | CLR | 78.3 | 66.2 | 67% | 80 | 29.94 | 0.0 | ||||||
| 01 | 09:15 | W 5 | 10.00 | Fair | CLR | 77.7 | 67.1 | 70% | 80 | 29.93 | 0.0 | ||||||
| 01 | 08:55 | W 5 | 10.00 | Fair | CLR | 76.5 | 67.6 | 74% | 78 | 29.93 | 0.0 | ||||||
| 01 | 08:35 | W 5 | 10.00 | Fair | CLR | 75.2 | 67.1 | 76% | 76 | 29.93 | 0.0 | ||||||
| 01 | 08:15 | SW 6 | 10.00 | Fair | CLR | 74.7 | 66.9 | 77% | 29.93 | 0.0 | |||||||
| 01 | 07:55 | S 6 | 10.00 | Fair | CLR | 73.6 | 66.4 | 75.2 | 70.7 | 78% | 29.92 | 0.0 | |||||
| 01 | 07:35 | W 3 | 10.00 | Fair | CLR | 72.5 | 65.7 | 79% | 29.94 | 0.0 | |||||||
| 01 | 07:15 | W 5 | 10.00 | Fair | CLR | 71.6 | 64.9 | 80% | 29.93 | 0.0 | |||||||
| 01 | 07:00 | W 5 | 10.00 | Fair | CLR | 70.9 | 64.4 | 80% | 29.92 | 0.0 | |||||||
| 01 | 06:35 | SW 3 | 10.00 | Fair | CLR | 71.6 | 64.4 | 78% | 29.9 | 0.0 | |||||||
| 01 | 06:15 | SW 5 | 10.00 | Fair | CLR | 71.6 | 64.4 | 78% | 29.9 | 0.0 | |||||||
| 01 | 05:55 | SW 5 | 10.00 | Fair | CLR | 71.4 | 64 | 78% | 29.9 | 0.0 | |||||||
| 01 | 05:35 | SW 3 | 10.00 | Fair | CLR | 71.6 | 63.9 | 77% | 29.9 | 0.0 | |||||||
| 01 | 05:15 | W 3 | 10.00 | Fair | CLR | 71.8 | 63.7 | 76% | 29.9 | 0.0 | |||||||
| 01 | 04:55 | W 3 | 10.00 | Fair | CLR | 72.5 | 63.9 | 74% | 29.9 | 0.0 | |||||||
| 01 | 04:35 | W 3 | 10.00 | Fair | CLR | 72.7 | 63.7 | 73% | 29.89 | 0.0 | |||||||
| 01 | 03:55 | W 5 | 10.00 | Fair | CLR | 73 | 63.5 | 72% | 29.88 | 0.0 | |||||||
| 01 | 03:35 | W 6 | 10.00 | Fair | CLR | 73.6 | 63 | 70% | 29.88 | 0.0 | |||||||
| 01 | 03:15 | W 5 | 10.00 | Fair | CLR | 73.6 | 62.8 | 69% | 29.89 | 0.0 | |||||||
| 01 | 02:55 | W 6 | 10.00 | Fair | CLR | 73.9 | 62.2 | 67% | 29.89 | 0.0 | |||||||
| 01 | 02:35 | W 6 | 10.00 | Fair | CLR | 74.5 | 61.9 | 65% | 29.89 | 0.0 | |||||||
| 01 | 02:15 | SW 8 | 10.00 | Fair | CLR | 75.2 | 61.3 | 62% | 77 | 29.9 | 0.0 | ||||||
| 01 | 01:55 | SW 7 | 10.00 | Fair | CLR | 75.2 | 60.8 | 81.7 | 74.7 | 61% | 77 | 29.9 | 0.0 | ||||
| 01 | 01:35 | W 5 | 10.00 | Fair | CLR | 74.8 | 60.8 | 62% | 29.9 | 0.0 | |||||||
| 01 | 01:15 | W 5 | 10.00 | Fair | CLR | 75.2 | 60.3 | 60% | 77 | 29.9 | 0.0 | ||||||
| 01 | 00:55 | W 5 | 10.00 | Fair | CLR | 75.9 | 59.9 | 58% | 78 | 29.9 | 0.0 | ||||||
| 01 | 00:35 | W 6 | 10.00 | Fair | CLR | 76.5 | 59.4 | 56% | 78 | 29.9 | 0.0 | ||||||
| 01 | 00:15 | W 7 | 10.00 | Fair | CLR | 77.4 | 59.2 | 54% | 79 | 29.91 | 0.0 | ||||||
| 30 | 23:55 | W 7 | 10.00 | Fair | CLR | 77.9 | 59.2 | 53% | 79 | 29.91 | 0.0 | ||||||
| 30 | 23:35 | W 8 | 10.00 | Fair | CLR | 78.6 | 59 | 51% | 80 | 29.91 | 0.0 | ||||||
| 30 | 23:15 | W 9 | 10.00 | Fair | CLR | 79.2 | 59.2 | 50% | 80 | 29.9 | 0.0 | ||||||
| 30 | 22:55 | W 7 | 10.00 | Fair | CLR | 79.5 | 61.5 | 54% | 81 | 29.9 | 0.0 | ||||||
| 30 | 22:35 | SW 6 | 10.00 | Fair | CLR | 79.7 | 65.7 | 62% | 82 | 29.9 | 0.0 | ||||||
| 30 | 22:15 | SW 6 | 10.00 | Partly Cloudy | SCT060 | 80.2 | 65.7 | 61% | 82 | 29.9 | 0.0 | ||||||
| 30 | 21:55 | S 6 | 10.00 | Mostly Cloudy | BKN060 | 81.5 | 65.3 | 58% | 83 | 29.89 | 0.0 | ||||||
| 30 | 21:35 | S 7 | 10.00 | Partly Cloudy | SCT060 | 81.5 | 63.5 | 54% | 83 | 29.88 | 0.0 | ||||||
| 30 | 21:15 | S 7 | 10.00 | Partly Cloudy | SCT070 | 81.5 | 62.1 | 52% | 82 | 29.87 | 0.0 | ||||||
| 30 | 20:55 | S 8 | 10.00 | Mostly Cloudy | BKN070 | 81.3 | 63 | 54% | 83 | 29.87 | 0.0 | ||||||
| 30 | 20:35 | S 7 | 10.00 | Partly Cloudy | SCT070 | 81.5 | 64.9 | 57% | 83 | 29.87 | 0.0 | ||||||
| 30 | 20:15 | S 9 | 10.00 | Fair | CLR | 81.5 | 63.9 | 55% | 83 | 29.86 | 0.0 | ||||||
| 30 | 19:55 | S 13 | 10.00 | Fair | CLR | 81.7 | 64.4 | 91.6 | 81.7 | 56% | 83 | 29.85 | 0.0 | ||||
| 30 | 19:35 | S 10 | 10.00 | Fair | CLR | 82.4 | 64 | 54% | 84 | 29.85 | 0.0 | ||||||
| 30 | 19:15 | SE 13 | 10.00 | Fair | CLR | 83.3 | 64 | 52% | 85 | 29.84 | 0.0 | ||||||
| 30 | 18:55 | S 14 | 10.00 | Fair | CLR | 83.7 | 63.5 | 51% | 85 | 29.84 | 0.0 | ||||||
| 30 | 18:35 | S 13 | 10.00 | Fair | CLR | 84.4 | 62.6 | 48% | 85 | 29.84 | 0.0 | ||||||
| 30 | 18:15 | SE 15 | 10.00 | Partly Cloudy | SCT065 | 84.6 | 64.4 | 51% | 86 | 29.84 | 0.0 | ||||||
| 30 | 17:55 | SE 10 | 10.00 | Partly Cloudy | SCT065 | 85.3 | 63.5 | 48% | 86 | 29.84 | 0.0 | ||||||
| 30 | 17:35 | SE 14 | 10.00 | Fair | CLR | 85.5 | 64 | 49% | 87 | 29.84 | 0.0 | ||||||
| 30 | 17:15 | SE 15 | 10.00 | Fair | CLR | 86.2 | 64.6 | 49% | 88 | 29.84 | 0.0 | ||||||
| 30 | 16:55 | SE 13 | 10.00 | Partly Cloudy | SCT055 | 85.5 | 64.8 | 50% | 87 | 29.84 | 0.0 | ||||||
| 30 | 16:35 | SE 14 G 20 | 10.00 | Partly Cloudy | SCT055 | 86.5 | 64.8 | 48% | 88 | 29.85 | 0.0 | ||||||
| 30 | 16:15 | SE 12 | 10.00 | Mostly Cloudy | BKN055 | 87.1 | 64 | 46% | 88 | 29.85 | 0.0 | ||||||
| 30 | 15:55 | SE 12 | 10.00 | Partly Cloudy | BKN055 SCT065 | 86.7 | 63.7 | 46% | 88 | 29.86 | 0.0 | ||||||
| 30 | 15:35 | SE 13 | 10.00 | Mostly Cloudy | BKN055 | 87.4 | 63 | 44% | 88 | 29.87 | 0.0 | ||||||
| 30 | 15:15 | SE 9 | 10.00 | Partly Cloudy | SCT055 | 88 | 62.4 | 43% | 89 | 29.87 | 0.0 | ||||||
| 30 | 14:55 | S 7 | 10.00 | Partly Cloudy | SCT002 | 91.4 | 58.1 | 33% | 90 | 29.88 | 0.0 | ||||||
| 30 | 14:35 | W 7 G 16 | 10.00 | Partly Cloudy | SCT002 SCT050 | 90.5 | 58.1 | 34% | 89 | 29.89 | 0.0 | ||||||
| 30 | 14:15 | SW 9 G 16 | 10.00 | Mostly Cloudy | BKN050 | 90.9 | 56.5 | 31% | 89 | 29.89 | 0.0 | ||||||
| 30 | 13:55 | SW 9 | 10.00 | Partly Cloudy | SCT050 | 90.3 | 56.7 | 90.5 | 74.5 | 32% | 89 | 29.88 | 0.0 | ||||
| 30 | 13:35 | SW 8 | 10.00 | Partly Cloudy | SCT046 | 88.5 | 58.6 | 37% | 88 | 29.89 | 0.0 | ||||||
| 30 | 13:15 | SW 5 | 10.00 | Mostly Cloudy | BKN046 | 86.9 | 59.2 | 39% | 86 | 29.9 | 0.0 | ||||||
| 30 | 12:55 | SW 9 | 10.00 | Partly Cloudy | SCT046 | 87.6 | 59.9 | 39% | 87 | 29.9 | 0.0 | ||||||
| 30 | 12:35 | SW 12 G 17 | 10.00 | Fair | CLR | 87.6 | 59.4 | 39% | 87 | 29.91 | 0.0 | ||||||
| 30 | 12:15 | W 14 | 10.00 | Fair | CLR | 87.1 | 59.2 | 39% | 86 | 29.92 | 0.0 | ||||||
| 30 | 11:55 | SW 9 | 10.00 | Fair | CLR | 86.9 | 57.6 | 37% | 86 | 29.93 | 0.0 | ||||||
| 30 | 11:35 | SW 8 | 10.00 | Fair | CLR | 86.9 | 58.5 | 38% | 86 | 29.93 | 0.0 | ||||||
| 30 | 11:15 | W 6 | 10.00 | Fair | CLR | 85.1 | 59.7 | 42% | 85 | 29.94 | 0.0 | ||||||
| 30 | 10:55 | SW 5 | 10.00 | Fair | CLR | 83.8 | 60.1 | 45% | 84 | 29.94 | 0.0 | ||||||
| 30 | 10:35 | W 5 | 10.00 | Fair | CLR | 82 | 61.3 | 50% | 83 | 29.94 | 0.0 | ||||||
| 30 | 10:15 | W 5 | 10.00 | Fair | CLR | 80.4 | 64.9 | 59% | 82 | 29.93 | 0.0 | ||||||
| 30 | 09:55 | W 3 | 10.00 | Fair | CLR | 77.5 | 66.6 | 69% | 79 | 29.93 | 0.0 | ||||||
| 30 | 09:35 | W 5 | 10.00 | Fair | CLR | 76.3 | 66.9 | 73% | 78 | 29.93 | 0.0 | ||||||
| 30 | 09:15 | W 5 | 10.00 | Fair | CLR | 75.9 | 66.6 | 73% | 77 | 29.93 | 0.0 | ||||||
| 30 | 08:55 | SW 5 | 10.00 | Fair | CLR | 75.2 | 66.2 | 74% | 77 | 29.92 | 0.0 | ||||||
| 30 | 08:35 | SW 6 | 10.00 | Fair | CLR | 75 | 66.2 | 74% | 76 | 29.93 | 0.0 | ||||||
| 30 | 08:15 | W 7 | 10.00 | Fair | CLR | 74.8 | 66.2 | 75% | 29.94 | 0.0 | |||||||
| 30 | 07:55 | W 5 | 10.00 | Fair | CLR | 74.1 | 66.4 | 76.5 | 71.8 | 77% | 29.94 | 0.0 | |||||
| 30 | 07:35 | W 5 | 10.00 | Fair | CLR | 72.5 | 65.5 | 79% | 29.93 | 0.0 | |||||||
| 30 | 07:15 | W 5 | 10.00 | Fair | CLR | 72 | 64.9 | 79% | 29.92 | 0.0 | |||||||
| 30 | 06:55 | W 5 | 10.00 | Fair | CLR | 71.8 | 64.6 | 78% | 29.92 | 0.0 | |||||||
| 30 | 06:35 | W 6 | 10.00 | Fair | CLR | 72.1 | 64.6 | 77% | 29.92 | 0.0 | |||||||
| 30 | 06:15 | W 6 | 10.00 | Fair | CLR | 72.1 | 64.4 | 77% | 29.91 | 0.0 | |||||||
| 30 | 05:55 | W 6 | 10.00 | Fair | CLR | 72.5 | 64.4 | 76% | 29.91 | 0.0 | |||||||
| 30 | 05:35 | W 6 | 10.00 | Fair | CLR | 72.7 | 64.4 | 75% | 29.91 | 0.0 | |||||||
| 30 | 05:15 | W 5 | 10.00 | Fair | CLR | 72.9 | 64 | 74% | 29.91 | 0.0 | |||||||
| 30 | 04:55 | W 5 | 10.00 | Fair | CLR | 73 | 64 | 74% | 29.91 | 0.0 | |||||||
| 30 | 04:35 | W 5 | 10.00 | Fair | CLR | 73.8 | 63.9 | 71% | 29.9 | 0.0 | |||||||
| 30 | 04:15 | SW 5 | 10.00 | Fair | CLR | 73.9 | 63.9 | 71% | 29.91 | 0.0 | |||||||
| 30 | 03:55 | SW 6 | 10.00 | Fair | CLR | 74.5 | 63.9 | 70% | 29.9 | 0.0 | |||||||
| 30 | 03:35 | SW 7 | 10.00 | Fair | CLR | 74.8 | 63.9 | 69% | 29.91 | 0.0 | |||||||
| 30 | 03:15 | SW 7 | 10.00 | Fair | CLR | 75.2 | 64.6 | 70% | 77 | 29.92 | 0.0 | ||||||
| 30 | 02:55 | SW 8 | 10.00 | Fair | CLR | 75.7 | 65.3 | 70% | 77 | 29.92 | 0.0 | ||||||
| 30 | 02:35 | SW 9 | 10.00 | Partly Cloudy | SCT037 | 76.1 | 65.5 | 70% | 78 | 29.93 | 0.0 | ||||||
| 30 | 02:15 | SW 9 | 10.00 | Partly Cloudy | SCT037 | 76.3 | 65.8 | 70% | 78 | 29.94 | 0.0 | ||||||
| 30 | 01:55 | SW 6 | 10.00 | Fair | CLR | 76.5 | 65.8 | 80.1 | 76.5 | 70% | 78 | 29.94 | 0.0 | ||||
| 30 | 01:35 | SW 5 | 10.00 | Fair | CLR | 77 | 65.7 | 68% | 79 | 29.93 | 0.0 | ||||||
| 30 | 01:15 | S 5 | 10.00 | Fair | CLR | 77.4 | 65.3 | 66% | 79 | 29.94 | 0.0 | ||||||
| 30 | 00:55 | S 5 | 10.00 | Partly Cloudy | SCT036 | 77.5 | 65.3 | 66% | 79 | 29.95 | 0.0 | ||||||
| 30 | 00:35 | S 5 | 10.00 | Mostly Cloudy | BKN036 BKN043 | 77.9 | 64.9 | 64% | 80 | 29.95 | 0.0 | ||||||
| 30 | 00:15 | SW 5 | 10.00 | Partly Cloudy | SCT039 | 78.1 | 64.8 | 64% | 80 | 29.96 | 0.0 | ||||||
| 29 | 23:55 | Calm | 10.00 | Partly Cloudy | SCT039 | 78.8 | 64.8 | 62% | 81 | 29.96 | 0.0 | ||||||
| 29 | 23:35 | S 3 | 10.00 | Partly Cloudy | SCT039 | 78.8 | 64.4 | 61% | 81 | 29.96 | 0.0 | ||||||
| 29 | 23:15 | S 6 | 10.00 | Fair | CLR | 78.8 | 64.4 | 61% | 81 | 29.96 | 0.0 | ||||||
| 29 | 22:55 | S 6 | 10.00 | Fair | CLR | 78.8 | 64.4 | 61% | 81 | 29.96 | 0.0 | ||||||
| 29 | 22:35 | S 6 | 10.00 | Fair | CLR | 79 | 64.4 | 61% | 81 | 29.96 | 0.0 | ||||||
| 29 | 22:15 | S 6 | 10.00 | Fair | CLR | 79.2 | 64.4 | 61% | 81 | 29.96 | 0.0 | ||||||
| 29 | 21:55 | S 6 | 10.00 | Fair | CLR | 79.3 | 64.4 | 60% | 81 | 29.96 | 0.0 | ||||||
| 29 | 21:35 | S 6 | 10.00 | Fair | CLR | 79.3 | 64.9 | 62% | 81 | 29.95 | 0.0 | ||||||
| 29 | 21:15 | S 6 | 10.00 | Fair | CLR | 79.3 | 64.8 | 61% | 81 | 29.94 | 0.0 | ||||||
| 29 | 20:55 | S 9 | 10.00 | Fair | CLR | 79.5 | 64.8 | 61% | 81 | 29.92 | 0.0 | ||||||
| 29 | 20:35 | S 9 | 10.00 | Fair | CLR | 79.7 | 64.6 | 60% | 81 | 29.92 | 0.0 | ||||||
| 29 | 20:15 | S 9 | 10.00 | Fair | CLR | 79.9 | 64.6 | 60% | 82 | 29.92 | 0.0 | ||||||
| 29 | 19:55 | S 13 | 10.00 | Fair | CLR | 80.2 | 64.8 | 85.5 | 80.2 | 59% | 82 | 29.92 | 0.0 | ||||
| 29 | 19:35 | S 13 G 16 | 10.00 | Fair | CLR | 80.8 | 63.9 | 56% | 82 | 29.92 | 0.0 | ||||||
| Date | Time (edt) | Wind (mph) | Vis. (mi.) | Weather | Sky Cond. | Air | Dwpt | Max. | Min. | Relative Humidity | Wind Chill (°F) | Heat Index (°F) | altimeter (in) | sea level (mb) | 1 hr | 3 hr | 6 hr |
| 6 hour | |||||||||||||||||
| Temperature (ºF) | Pressure | Precipitation (in) | |||||||||||||||